SHT5W EGAC-EGLL
Flight info
| Callsign | SHT5W |
|---|---|
| Flight time | 0h 53m |
| Altitude | 31000 |
| Route | N0431F310 DCT DUFFY L10 RINGA Q39 BABGU DCT ETIGA DCT INKOB Q39 NOMSU UQ4 WAL UY53 NUGRA NUGRA2H |
| Aircraft | A319/M-SDE2E3FGHIJ1RWXY/SB1 |
Departure
| Time | 2026-05-05 11:43 |
|---|---|
| Airport | George Best Belfast City Airport (EGAC) |
Arrival
| Time | 2026-05-05 12:37 |
|---|---|
| Airport | London Heathrow Airport (EGLL) |
| Time | Latitude | Longitude | Altitude | Speed | Heading |
|---|---|---|---|---|---|
| 2026-05-05 10:44 | 54.61537 | -5.87094 | 17 ft | 0 kts | 124° |
| 2026-05-05 11:34 | 54.61547 | -5.87120 | 46 ft | 1 kts | 124° |
| 2026-05-05 11:34 | 54.61562 | -5.87154 | 11 ft | 4 kts | 142° |
| 2026-05-05 11:34 | 54.61583 | -5.87162 | 17 ft | 3 kts | 214° |
| 2026-05-05 11:34 | 54.61587 | -5.87157 | 17 ft | 0 kts | 214° |
| 2026-05-05 11:38 | 54.61582 | -5.87162 | 17 ft | 5 kts | 214° |
| 2026-05-05 11:38 | 54.61529 | -5.87226 | 17 ft | 13 kts | 215° |
| 2026-05-05 11:38 | 54.61448 | -5.87324 | 17 ft | 16 kts | 215° |
| 2026-05-05 11:38 | 54.61364 | -5.87469 | 17 ft | 19 kts | 219° |
| 2026-05-05 11:39 | 54.61248 | -5.87604 | 19 ft | 21 kts | 215° |
| 2026-05-05 11:39 | 54.61132 | -5.87746 | 18 ft | 12 kts | 216° |
| 2026-05-05 11:39 | 54.61098 | -5.87789 | 19 ft | 0 kts | 221° |
| 2026-05-05 11:42 | 54.61086 | -5.87816 | 18 ft | 6 kts | 240° |
| 2026-05-05 11:42 | 54.61088 | -5.87904 | 23 ft | 6 kts | 291° |
| 2026-05-05 11:42 | 54.61120 | -5.87992 | 22 ft | 11 kts | 304° |
| 2026-05-05 11:43 | 54.61196 | -5.87984 | 24 ft | 20 kts | 34° |
| 2026-05-05 11:43 | 54.61505 | -5.87617 | 18 ft | 87 kts | 34° |
| 2026-05-05 11:43 | 54.62155 | -5.86836 | 160 ft | 125 kts | 35° |
| 2026-05-05 11:43 | 54.62837 | -5.86010 | 861 ft | 118 kts | 32° |
| 2026-05-05 11:44 | 54.63540 | -5.85161 | 1354 ft | 133 kts | 32° |
| 2026-05-05 11:44 | 54.64368 | -5.84111 | 1879 ft | 157 kts | 32° |
| 2026-05-05 11:44 | 54.65315 | -5.82893 | 2396 ft | 183 kts | 32° |
| 2026-05-05 11:44 | 54.66389 | -5.81513 | 3033 ft | 207 kts | 33° |
| 2026-05-05 11:45 | 54.67620 | -5.79961 | 3761 ft | 231 kts | 33° |
| 2026-05-05 11:45 | 54.68810 | -5.77894 | 4615 ft | 256 kts | 56° |
| 2026-05-05 11:45 | 54.69329 | -5.74882 | 5705 ft | 271 kts | 84° |
| 2026-05-05 11:45 | 54.69024 | -5.71622 | 6806 ft | 283 kts | 111° |
| 2026-05-05 11:46 | 54.67852 | -5.68863 | 7860 ft | 291 kts | 140° |
| 2026-05-05 11:46 | 54.66034 | -5.67311 | 8902 ft | 296 kts | 167° |
| 2026-05-05 11:46 | 54.64017 | -5.66501 | 10009 ft | 299 kts | 169° |
| 2026-05-05 11:46 | 54.61936 | -5.65709 | 10657 ft | 318 kts | 169° |
| 2026-05-05 11:47 | 54.59693 | -5.64867 | 11120 ft | 338 kts | 169° |
| 2026-05-05 11:47 | 54.57365 | -5.63981 | 11903 ft | 346 kts | 169° |
| 2026-05-05 11:47 | 54.54998 | -5.63065 | 12787 ft | 351 kts | 169° |
| 2026-05-05 11:47 | 54.52600 | -5.62122 | 13678 ft | 355 kts | 169° |
| 2026-05-05 11:48 | 54.47727 | -5.60190 | 15277 ft | 362 kts | 169° |
| 2026-05-05 11:48 | 54.45257 | -5.59218 | 16076 ft | 366 kts | 169° |
| 2026-05-05 11:48 | 54.42801 | -5.57988 | 16862 ft | 371 kts | 160° |
| 2026-05-05 11:49 | 54.40491 | -5.55933 | 17655 ft | 378 kts | 148° |
| 2026-05-05 11:49 | 54.38443 | -5.53059 | 18434 ft | 384 kts | 136° |
| 2026-05-05 11:49 | 54.36778 | -5.49519 | 19100 ft | 389 kts | 125° |
| 2026-05-05 11:49 | 54.35232 | -5.45659 | 19797 ft | 392 kts | 126° |
| 2026-05-05 11:50 | 54.33672 | -5.41806 | 20493 ft | 396 kts | 126° |
| 2026-05-05 11:50 | 54.32090 | -5.37921 | 21174 ft | 399 kts | 126° |
| 2026-05-05 11:50 | 54.30483 | -5.34004 | 21841 ft | 403 kts | 127° |
| 2026-05-05 11:50 | 54.28864 | -5.30061 | 22491 ft | 406 kts | 127° |
| 2026-05-05 11:51 | 54.27215 | -5.26106 | 23131 ft | 410 kts | 128° |
| 2026-05-05 11:51 | 54.25470 | -5.22230 | 23744 ft | 413 kts | 130° |
| 2026-05-05 11:51 | 54.23645 | -5.18420 | 24266 ft | 415 kts | 132° |
| 2026-05-05 11:51 | 54.21775 | -5.14639 | 24790 ft | 418 kts | 133° |
| 2026-05-05 11:52 | 54.19880 | -5.10834 | 25306 ft | 421 kts | 133° |
| 2026-05-05 11:52 | 54.17980 | -5.07000 | 25820 ft | 424 kts | 133° |
| 2026-05-05 11:52 | 54.16082 | -5.03138 | 26327 ft | 427 kts | 132° |
| 2026-05-05 11:52 | 54.14176 | -4.99221 | 26828 ft | 430 kts | 132° |
| 2026-05-05 11:53 | 54.12265 | -4.95268 | 27325 ft | 433 kts | 132° |
| 2026-05-05 11:53 | 54.10367 | -4.91341 | 27812 ft | 436 kts | 132° |
| 2026-05-05 11:53 | 54.08433 | -4.87343 | 28308 ft | 439 kts | 132° |
| 2026-05-05 11:53 | 54.06485 | -4.83326 | 28795 ft | 442 kts | 132° |
| 2026-05-05 11:54 | 54.04516 | -4.79272 | 29275 ft | 445 kts | 132° |
| 2026-05-05 11:54 | 54.02573 | -4.75157 | 29741 ft | 448 kts | 131° |
| 2026-05-05 11:54 | 54.00670 | -4.70940 | 30192 ft | 451 kts | 130° |
| 2026-05-05 11:54 | 53.98784 | -4.66651 | 30571 ft | 454 kts | 129° |
| 2026-05-05 11:55 | 53.96899 | -4.62323 | 30938 ft | 456 kts | 129° |
| 2026-05-05 11:55 | 53.95009 | -4.57991 | 31061 ft | 454 kts | 129° |
| 2026-05-05 11:55 | 53.93161 | -4.53760 | 31079 ft | 439 kts | 128° |
| 2026-05-05 11:55 | 53.91432 | -4.49544 | 31082 ft | 432 kts | 126° |
| 2026-05-05 11:56 | 53.88211 | -4.41018 | 31077 ft | 428 kts | 124° |
| 2026-05-05 11:56 | 53.85045 | -4.32495 | 31074 ft | 427 kts | 125° |
| 2026-05-05 11:57 | 53.81792 | -4.24093 | 31076 ft | 426 kts | 126° |
| 2026-05-05 11:57 | 53.78500 | -4.15746 | 31073 ft | 426 kts | 126° |
| 2026-05-05 11:58 | 53.75217 | -4.07431 | 31067 ft | 425 kts | 126° |
| 2026-05-05 11:58 | 53.71928 | -3.99126 | 31061 ft | 425 kts | 126° |
| 2026-05-05 11:59 | 53.68642 | -3.90844 | 31063 ft | 424 kts | 126° |
| 2026-05-05 11:59 | 53.65384 | -3.82625 | 31058 ft | 424 kts | 125° |
| 2026-05-05 12:00 | 53.62104 | -3.74377 | 31059 ft | 423 kts | 125° |
| 2026-05-05 12:00 | 53.58816 | -3.66153 | 31054 ft | 423 kts | 126° |
| 2026-05-05 12:01 | 53.55522 | -3.57954 | 31045 ft | 422 kts | 126° |
| 2026-05-05 12:01 | 53.52225 | -3.49771 | 31043 ft | 422 kts | 126° |
| 2026-05-05 12:02 | 53.48929 | -3.41603 | 31048 ft | 422 kts | 126° |
| 2026-05-05 12:02 | 53.45634 | -3.33453 | 31044 ft | 422 kts | 126° |
| 2026-05-05 12:03 | 53.42326 | -3.25308 | 31042 ft | 422 kts | 126° |
| 2026-05-05 12:03 | 53.39008 | -3.17188 | 31044 ft | 422 kts | 126° |
| 2026-05-05 12:04 | 53.35699 | -3.09083 | 31046 ft | 422 kts | 125° |
| 2026-05-05 12:04 | 53.32382 | -3.00997 | 31051 ft | 421 kts | 125° |
| 2026-05-05 12:05 | 53.29058 | -2.92926 | 31050 ft | 421 kts | 125° |
| 2026-05-05 12:05 | 53.25735 | -2.84871 | 31053 ft | 420 kts | 125° |
| 2026-05-05 12:06 | 53.22418 | -2.76861 | 31056 ft | 419 kts | 125° |
| 2026-05-05 12:06 | 53.19089 | -2.68866 | 31060 ft | 419 kts | 125° |
| 2026-05-05 12:07 | 53.15766 | -2.60895 | 31065 ft | 418 kts | 125° |
| 2026-05-05 12:07 | 53.12453 | -2.52956 | 31064 ft | 417 kts | 125° |
| 2026-05-05 12:08 | 53.09160 | -2.45095 | 31059 ft | 416 kts | 125° |
| 2026-05-05 12:08 | 53.05404 | -2.37711 | 31047 ft | 431 kts | 144° |
| 2026-05-05 12:09 | 53.02715 | -2.35266 | 31048 ft | 439 kts | 155° |
| 2026-05-05 12:09 | 52.99963 | -2.33168 | 31037 ft | 442 kts | 155° |
| 2026-05-05 12:09 | 52.94350 | -2.28968 | 31040 ft | 443 kts | 155° |
| 2026-05-05 12:10 | 52.88726 | -2.24810 | 31042 ft | 442 kts | 155° |
| 2026-05-05 12:10 | 52.83122 | -2.20686 | 31003 ft | 434 kts | 155° |
| 2026-05-05 12:11 | 52.80402 | -2.18682 | 30828 ft | 422 kts | 155° |
| 2026-05-05 12:11 | 52.77744 | -2.16717 | 30568 ft | 416 kts | 155° |
| 2026-05-05 12:11 | 52.75115 | -2.14761 | 30196 ft | 414 kts | 155° |
| 2026-05-05 12:11 | 52.72496 | -2.12795 | 29724 ft | 413 kts | 155° |
| 2026-05-05 12:12 | 52.69883 | -2.10810 | 29231 ft | 413 kts | 155° |
| 2026-05-05 12:12 | 52.67276 | -2.08798 | 28754 ft | 412 kts | 155° |
| 2026-05-05 12:12 | 52.64696 | -2.06780 | 28283 ft | 409 kts | 155° |
| 2026-05-05 12:12 | 52.62132 | -2.04751 | 27819 ft | 406 kts | 155° |
| 2026-05-05 12:13 | 52.59596 | -2.02726 | 27361 ft | 403 kts | 155° |
| 2026-05-05 12:13 | 52.57084 | -2.00709 | 26903 ft | 401 kts | 155° |
| 2026-05-05 12:13 | 52.54583 | -1.98693 | 26470 ft | 398 kts | 155° |
| 2026-05-05 12:13 | 52.52102 | -1.96689 | 26038 ft | 396 kts | 155° |
| 2026-05-05 12:14 | 52.49640 | -1.94698 | 25618 ft | 394 kts | 155° |
| 2026-05-05 12:14 | 52.47191 | -1.92715 | 25189 ft | 391 kts | 155° |
| 2026-05-05 12:14 | 52.44756 | -1.90743 | 24773 ft | 389 kts | 155° |
| 2026-05-05 12:14 | 52.42336 | -1.88784 | 24364 ft | 387 kts | 155° |
| 2026-05-05 12:15 | 52.39925 | -1.86836 | 23958 ft | 385 kts | 155° |
| 2026-05-05 12:15 | 52.37529 | -1.84902 | 23554 ft | 383 kts | 155° |
| 2026-05-05 12:15 | 52.35144 | -1.82979 | 23100 ft | 381 kts | 155° |
| 2026-05-05 12:15 | 52.32772 | -1.81069 | 22645 ft | 379 kts | 155° |
| 2026-05-05 12:16 | 52.30411 | -1.79171 | 22218 ft | 376 kts | 155° |
| 2026-05-05 12:16 | 52.28066 | -1.77289 | 21787 ft | 374 kts | 155° |
| 2026-05-05 12:16 | 52.25744 | -1.75417 | 21365 ft | 372 kts | 154° |
| 2026-05-05 12:16 | 52.23501 | -1.73300 | 20969 ft | 370 kts | 150° |
| 2026-05-05 12:17 | 52.21301 | -1.71139 | 20583 ft | 369 kts | 150° |
| 2026-05-05 12:17 | 52.19107 | -1.68984 | 20227 ft | 367 kts | 150° |
| 2026-05-05 12:17 | 52.16925 | -1.66843 | 19877 ft | 365 kts | 150° |
| 2026-05-05 12:17 | 52.14751 | -1.64715 | 19543 ft | 364 kts | 150° |
| 2026-05-05 12:18 | 52.12581 | -1.62591 | 19201 ft | 362 kts | 150° |
| 2026-05-05 12:18 | 52.10430 | -1.60488 | 18863 ft | 360 kts | 150° |
| 2026-05-05 12:18 | 52.08283 | -1.58399 | 18533 ft | 359 kts | 150° |
| 2026-05-05 12:18 | 52.06139 | -1.56326 | 18191 ft | 358 kts | 150° |
| 2026-05-05 12:19 | 52.04002 | -1.54271 | 17808 ft | 357 kts | 150° |
| 2026-05-05 12:19 | 52.01870 | -1.52230 | 17433 ft | 355 kts | 150° |
| 2026-05-05 12:19 | 51.99744 | -1.50200 | 17062 ft | 354 kts | 150° |
| 2026-05-05 12:19 | 51.97626 | -1.48184 | 16693 ft | 352 kts | 150° |
| 2026-05-05 12:20 | 51.95515 | -1.46183 | 16327 ft | 351 kts | 150° |
| 2026-05-05 12:20 | 51.93408 | -1.44195 | 15967 ft | 349 kts | 150° |
| 2026-05-05 12:20 | 51.91340 | -1.42147 | 15608 ft | 348 kts | 144° |
| 2026-05-05 12:20 | 51.90165 | -1.40379 | 15375 ft | 348 kts | 131° |
| 2026-05-05 12:21 | 51.88925 | -1.37055 | 15046 ft | 347 kts | 111° |
| 2026-05-05 12:21 | 51.88165 | -1.33343 | 14692 ft | 346 kts | 107° |
| 2026-05-05 12:21 | 51.87448 | -1.29650 | 14319 ft | 344 kts | 107° |
| 2026-05-05 12:21 | 51.86736 | -1.25954 | 13968 ft | 342 kts | 107° |
| 2026-05-05 12:22 | 51.86024 | -1.22277 | 13585 ft | 341 kts | 107° |
| 2026-05-05 12:22 | 51.85313 | -1.18634 | 13199 ft | 339 kts | 107° |
| 2026-05-05 12:22 | 51.84605 | -1.15021 | 12795 ft | 336 kts | 107° |
| 2026-05-05 12:22 | 51.83896 | -1.11428 | 12405 ft | 334 kts | 107° |
| 2026-05-05 12:23 | 51.83194 | -1.07871 | 12021 ft | 331 kts | 107° |
| 2026-05-05 12:23 | 51.82495 | -1.04334 | 11646 ft | 329 kts | 107° |
| 2026-05-05 12:23 | 51.81803 | -1.00820 | 11273 ft | 327 kts | 107° |
| 2026-05-05 12:23 | 51.81114 | -0.97330 | 10896 ft | 325 kts | 107° |
| 2026-05-05 12:24 | 51.80428 | -0.93861 | 10527 ft | 323 kts | 107° |
| 2026-05-05 12:24 | 51.79745 | -0.90416 | 10182 ft | 321 kts | 107° |
| 2026-05-05 12:24 | 51.79061 | -0.86996 | 9963 ft | 318 kts | 107° |
| 2026-05-05 12:24 | 51.78388 | -0.83648 | 9729 ft | 308 kts | 107° |
| 2026-05-05 12:25 | 51.77738 | -0.80409 | 9494 ft | 299 kts | 107° |
| 2026-05-05 12:25 | 51.77107 | -0.77255 | 9261 ft | 291 kts | 107° |
| 2026-05-05 12:25 | 51.76491 | -0.74189 | 9053 ft | 283 kts | 107° |
| 2026-05-05 12:25 | 51.75893 | -0.71208 | 8872 ft | 275 kts | 107° |
| 2026-05-05 12:26 | 51.75308 | -0.68304 | 8687 ft | 268 kts | 107° |
| 2026-05-05 12:26 | 51.74759 | -0.65583 | 8525 ft | 259 kts | 107° |
| 2026-05-05 12:26 | 51.74208 | -0.62864 | 8369 ft | 252 kts | 107° |
| 2026-05-05 12:26 | 51.73668 | -0.60200 | 8241 ft | 249 kts | 107° |
| 2026-05-05 12:27 | 51.73133 | -0.57551 | 8135 ft | 248 kts | 107° |
| 2026-05-05 12:27 | 51.72598 | -0.54911 | 8019 ft | 247 kts | 108° |
| 2026-05-05 12:27 | 51.71746 | -0.52532 | 7995 ft | 248 kts | 135° |
| 2026-05-05 12:27 | 51.70248 | -0.51160 | 7998 ft | 250 kts | 166° |
| 2026-05-05 12:28 | 51.68557 | -0.51203 | 7995 ft | 251 kts | 197° |
| 2026-05-05 12:28 | 51.67081 | -0.52635 | 7977 ft | 250 kts | 225° |
| 2026-05-05 12:28 | 51.65905 | -0.54725 | 7735 ft | 253 kts | 230° |
| 2026-05-05 12:28 | 51.64774 | -0.56895 | 7435 ft | 252 kts | 231° |
| 2026-05-05 12:29 | 51.63658 | -0.59072 | 7131 ft | 252 kts | 231° |
| 2026-05-05 12:29 | 51.62546 | -0.61254 | 6835 ft | 251 kts | 231° |
| 2026-05-05 12:29 | 51.61442 | -0.63428 | 6537 ft | 251 kts | 231° |
| 2026-05-05 12:29 | 51.60343 | -0.65598 | 6244 ft | 250 kts | 231° |
| 2026-05-05 12:30 | 51.59246 | -0.67764 | 5926 ft | 249 kts | 231° |
| 2026-05-05 12:30 | 51.58153 | -0.69923 | 5616 ft | 248 kts | 231° |
| 2026-05-05 12:30 | 51.57059 | -0.72069 | 5303 ft | 248 kts | 231° |
| 2026-05-05 12:30 | 51.55965 | -0.74212 | 4999 ft | 248 kts | 231° |
| 2026-05-05 12:31 | 51.54803 | -0.76250 | 4689 ft | 247 kts | 217° |
| 2026-05-05 12:31 | 51.53247 | -0.77288 | 4377 ft | 242 kts | 187° |
| 2026-05-05 12:31 | 51.51589 | -0.77531 | 4059 ft | 235 kts | 181° |
| 2026-05-05 12:31 | 51.49980 | -0.77666 | 3747 ft | 228 kts | 181° |
| 2026-05-05 12:32 | 51.48461 | -0.77366 | 3447 ft | 215 kts | 153° |
| 2026-05-05 12:32 | 51.47409 | -0.75836 | 3149 ft | 203 kts | 110° |
| 2026-05-05 12:32 | 51.47348 | -0.73693 | 2894 ft | 192 kts | 70° |
| 2026-05-05 12:32 | 51.47680 | -0.71662 | 2740 ft | 187 kts | 84° |
| 2026-05-05 12:33 | 51.47652 | -0.69584 | 2650 ft | 185 kts | 86° |
| 2026-05-05 12:33 | 51.47657 | -0.67546 | 2446 ft | 181 kts | 85° |
| 2026-05-05 12:33 | 51.47667 | -0.65550 | 2210 ft | 175 kts | 85° |
| 2026-05-05 12:33 | 51.47677 | -0.63649 | 2027 ft | 166 kts | 85° |
| 2026-05-05 12:34 | 51.47687 | -0.61798 | 1783 ft | 166 kts | 85° |
| 2026-05-05 12:34 | 51.47696 | -0.59982 | 1538 ft | 158 kts | 86° |
| 2026-05-05 12:34 | 51.47702 | -0.58397 | 1350 ft | 143 kts | 85° |
| 2026-05-05 12:34 | 51.47708 | -0.56900 | 1165 ft | 128 kts | 84° |
| 2026-05-05 12:35 | 51.47715 | -0.55513 | 986 ft | 123 kts | 84° |
| 2026-05-05 12:35 | 51.47722 | -0.54157 | 826 ft | 120 kts | 84° |
| 2026-05-05 12:35 | 51.47730 | -0.52812 | 623 ft | 119 kts | 84° |
| 2026-05-05 12:35 | 51.47737 | -0.51478 | 430 ft | 120 kts | 85° |
| 2026-05-05 12:36 | 51.47738 | -0.50145 | 311 ft | 120 kts | 84° |
| 2026-05-05 12:36 | 51.47748 | -0.48807 | 170 ft | 120 kts | 84° |
| 2026-05-05 12:36 | 51.47750 | -0.47491 | 87 ft | 107 kts | 84° |
| 2026-05-05 12:36 | 51.47759 | -0.46625 | 90 ft | 50 kts | 90° |
| 2026-05-05 12:37 | 51.47740 | -0.46208 | 87 ft | 27 kts | 121° |
| 2026-05-05 12:37 | 51.47610 | -0.46085 | 87 ft | 18 kts | 205° |
| 2026-05-05 12:37 | 51.47590 | -0.46285 | 87 ft | 20 kts | 261° |
| 2026-05-05 12:37 | 51.47593 | -0.46480 | 87 ft | 18 kts | 270° |
| 2026-05-05 12:38 | 51.47591 | -0.46687 | 87 ft | 19 kts | 269° |
| 2026-05-05 12:38 | 51.47582 | -0.46921 | 89 ft | 23 kts | 267° |
| 2026-05-05 12:38 | 51.47582 | -0.47198 | 91 ft | 26 kts | 269° |
| 2026-05-05 12:38 | 51.47580 | -0.47427 | 88 ft | 21 kts | 270° |
| 2026-05-05 12:39 | 51.47579 | -0.47674 | 87 ft | 23 kts | 270° |
| 2026-05-05 12:39 | 51.47579 | -0.47836 | 88 ft | 1 kts | 270° |
| 2026-05-05 12:39 | 51.47579 | -0.47945 | 88 ft | 17 kts | 269° |
| 2026-05-05 12:39 | 51.47577 | -0.48147 | 87 ft | 18 kts | 270° |
| 2026-05-05 12:40 | 51.47577 | -0.48351 | 88 ft | 17 kts | 268° |
| 2026-05-05 12:40 | 51.47539 | -0.48475 | 87 ft | 12 kts | 200° |
| 2026-05-05 12:40 | 51.47505 | -0.48478 | 87 ft | 1 kts | 180° |
| 2026-05-05 12:40 | 51.47480 | -0.48478 | 87 ft | 5 kts | 179° |
| 2026-05-05 12:41 | 51.47447 | -0.48478 | 87 ft | 5 kts | 179° |
| 2026-05-05 12:41 | 51.47415 | -0.48477 | 87 ft | 5 kts | 179° |
| 2026-05-05 12:41 | 51.47383 | -0.48476 | 87 ft | 5 kts | 179° |
| 2026-05-05 12:41 | 51.47350 | -0.48476 | 87 ft | 5 kts | 180° |
| 2026-05-05 12:42 | 51.47316 | -0.48476 | 87 ft | 5 kts | 180° |
| 2026-05-05 12:42 | 51.47276 | -0.48476 | 87 ft | 6 kts | 180° |
| 2026-05-05 12:42 | 51.47233 | -0.48475 | 87 ft | 6 kts | 179° |
| 2026-05-05 12:42 | 51.47206 | -0.48475 | 87 ft | 0 kts | 180° |
| 2026-05-05 12:46 | 51.47193 | -0.48475 | 87 ft | 5 kts | 180° |
| 2026-05-05 12:46 | 51.47149 | -0.48475 | 87 ft | 7 kts | 180° |
| 2026-05-05 12:47 | 51.47102 | -0.48474 | 87 ft | 7 kts | 179° |
| 2026-05-05 12:47 | 51.47056 | -0.48473 | 87 ft | 7 kts | 179° |
| 2026-05-05 12:47 | 51.47010 | -0.48472 | 87 ft | 7 kts | 179° |
| 2026-05-05 12:47 | 51.46964 | -0.48471 | 87 ft | 7 kts | 179° |
| 2026-05-05 12:48 | 51.46918 | -0.48470 | 88 ft | 7 kts | 179° |
| 2026-05-05 12:48 | 51.46880 | -0.48500 | 88 ft | 7 kts | 239° |
| 2026-05-05 12:48 | 51.46875 | -0.48574 | 88 ft | 7 kts | 267° |